Time;durP1;ratioP1;P1;durP2;ratioP2;P2;SDS_P1;SDS_P2;PMS_P1;PMS_P2;Temp;Humidity;BMP_temperature;BMP_pressure;BME280_temperature;BME280_humidity;BME280_pressure;Samples;Min_cycle;Max_cycle;Signal;HPM_P1;HPM_P2
2022/11/23 00:00:37;;;;;;;5.38;2.70;;;;;;;2.96;100.00;97046.44;15274693;19;20018;-64
2022/11/23 00:06:10;;;;;;;5.57;2.75;;;;;;;3.01;100.00;97037.03;15266791;19;20018;-64
2022/11/23 00:11:36;;;;;;;6.68;2.90;;;;;;;3.01;100.00;97033.56;15273428;19;20013;-64
2022/11/23 00:17:03;;;;;;;7.32;2.95;;;;;;;3.02;100.00;97037.88;15272298;19;20418;-63
2022/11/23 00:22:28;;;;;;;7.43;3.15;;;;;;;3.00;100.00;97035.34;15272671;19;20017;-64
2022/11/23 00:27:52;;;;;;;5.97;3.00;;;;;;;3.01;100.00;97037.03;15271865;19;20483;-63
2022/11/23 00:33:20;;;;;;;6.15;2.83;;;;;;;3.07;100.00;97039.13;15265751;19;20616;-64
2022/11/23 00:38:44;;;;;;;7.22;3.10;;;;;;;3.20;100.00;97048.56;15268977;19;20556;-64
2022/11/23 00:44:09;;;;;;;6.88;3.05;;;;;;;3.31;100.00;97047.50;15268200;19;20025;-64
2022/11/23 00:49:36;;;;;;;6.25;2.70;;;;;;;3.45;100.00;97048.84;15271327;19;20027;-65
2022/11/23 00:55:01;;;;;;;4.38;2.40;;;;;;;3.54;100.00;97048.75;15267958;19;20057;-61
2022/11/23 01:00:26;;;;;;;5.75;2.70;;;;;;;3.59;100.00;97061.63;15269286;19;20021;-63
2022/11/23 01:06:01;;;;;;;5.45;2.67;;;;;;;3.63;100.00;97047.03;15259463;19;20025;-65
2022/11/23 01:11:28;;;;;;;4.97;2.83;;;;;;;3.63;100.00;97043.53;15266145;19;20408;-63
2022/11/23 01:16:53;;;;;;;6.20;2.90;;;;;;;3.64;100.00;97050.53;15270282;19;20089;-63
2022/11/23 01:22:21;;;;;;;6.20;2.78;;;;;;;3.64;100.00;97067.34;15263023;19;20123;-65
2022/11/23 01:27:46;;;;;;;7.43;3.30;;;;;;;3.65;100.00;97058.38;15265488;19;20415;-64
2022/11/23 01:33:11;;;;;;;5.32;2.85;;;;;;;3.65;100.00;97050.38;15266542;19;20011;-63
2022/11/23 01:38:38;;;;;;;6.10;2.70;;;;;;;3.64;100.00;97054.03;15260517;19;20078;-64
2022/11/23 01:44:24;;;;;;;4.30;2.60;;;;;;;3.59;100.00;97048.31;15265244;19;20010;-64
2022/11/23 01:49:46;;;;;;;7.18;3.20;;;;;;;3.61;100.00;97058.84;15271500;19;20090;-64
2022/11/23 01:55:14;;;;;;;5.03;2.65;;;;;;;3.61;100.00;97069.47;15274082;19;20037;-65
2022/11/23 02:00:39;;;;;;;6.72;2.72;;;;;;;3.64;100.00;97064.69;15280825;19;20450;-66
2022/11/23 02:06:15;;;;;;;5.85;3.10;;;;;;;3.62;100.00;97066.66;15278195;19;20022;-65
2022/11/23 02:11:46;;;;;;;5.88;2.95;;;;;;;3.57;100.00;97062.78;15274446;19;20475;-64
2022/11/23 02:17:12;;;;;;;7.43;3.03;;;;;;;3.44;100.00;97055.16;15281067;19;20018;-65
2022/11/23 02:22:45;;;;;;;5.28;2.80;;;;;;;3.32;100.00;97063.34;15278199;19;20014;-62
2022/11/23 02:28:13;;;;;;;5.28;2.80;;;;;;;3.24;100.00;97042.81;15280848;19;20007;-61
2022/11/23 02:33:39;;;;;;;4.45;2.75;;;;;;;3.26;100.00;97058.63;15274411;19;20007;-64
2022/11/23 02:39:07;;;;;;;7.30;2.85;;;;;;;3.30;100.00;97060.00;15279365;19;20014;-62
2022/11/23 02:44:41;;;;;;;6.00;2.75;;;;;;;3.36;100.00;97050.56;15271373;19;20015;-65
2022/11/23 02:50:13;;;;;;;6.50;2.70;;;;;;;3.38;100.00;97060.09;15277766;19;20013;-65
2022/11/23 02:55:38;;;;;;;6.68;2.70;;;;;;;3.40;100.00;97062.63;15274748;19;20722;-66
2022/11/23 03:01:06;;;;;;;8.88;2.85;;;;;;;3.44;100.00;97071.13;15274758;19;20429;-65
2022/11/23 03:06:37;;;;;;;5.22;2.33;;;;;;;3.43;100.00;97077.44;15267071;19;20018;-65
2022/11/23 03:12:02;;;;;;;7.87;2.70;;;;;;;3.49;100.00;97076.81;15274654;19;20022;-65
2022/11/23 03:17:29;;;;;;;5.38;2.20;;;;;;;3.48;100.00;97075.16;15271088;19;20014;-65
2022/11/23 03:22:56;;;;;;;4.95;2.50;;;;;;;3.50;100.00;97075.84;15271394;19;20029;-66
2022/11/23 03:28:22;;;;;;;4.13;2.25;;;;;;;3.58;100.00;97091.94;15273835;19;20018;-64
2022/11/23 03:33:50;;;;;;;4.10;2.17;;;;;;;3.62;100.00;97092.47;15271697;19;20054;-64
2022/11/23 03:39:16;;;;;;;6.20;2.40;;;;;;;3.59;100.00;97084.75;15273956;19;20035;-64
2022/11/23 03:45:01;;;;;;;7.28;2.40;;;;;;;3.64;100.00;97101.16;15266754;19;20015;-66
2022/11/23 03:50:28;;;;;;;4.80;2.20;;;;;;;3.58;100.00;97097.25;15275230;19;20097;-65
2022/11/23 03:55:54;;;;;;;6.65;2.50;;;;;;;3.49;100.00;97098.13;15270355;19;20022;-63
2022/11/23 04:01:25;;;;;;;6.80;2.50;;;;;;;3.44;100.00;97087.09;15278817;19;20018;-65
2022/11/23 04:07:03;;;;;;;4.95;2.42;;;;;;;3.39;100.00;97093.72;15264397;19;20783;-65
2022/11/23 04:12:33;;;;;;;5.97;2.70;;;;;;;3.40;100.00;97081.25;15274255;19;20023;-66
2022/11/23 04:17:58;;;;;;;6.20;2.60;;;;;;;3.35;100.00;97070.19;15269695;19;20011;-65
2022/11/23 04:23:25;;;;;;;5.68;2.65;;;;;;;3.34;100.00;97076.50;15273434;19;20330;-65
2022/11/23 04:28:54;;;;;;;7.23;2.77;;;;;;;3.31;100.00;97084.78;15275030;19;20385;-65
2022/11/23 04:34:22;;;;;;;7.65;3.00;;;;;;;3.27;100.00;97078.09;15272466;19;20022;-65
2022/11/23 04:39:51;;;;;;;8.20;3.20;;;;;;;3.27;100.00;97081.59;15274747;19;20393;-63
2022/11/23 04:45:25;;;;;;;7.40;2.70;;;;;;;3.27;100.00;97078.09;15270893;19;20512;-65
2022/11/23 04:50:55;;;;;;;6.40;2.78;;;;;;;3.26;100.00;97076.41;15273323;19;20466;-65
2022/11/23 04:56:25;;;;;;;10.00;3.00;;;;;;;3.28;100.00;97090.41;15264798;19;20025;-64
2022/11/23 05:01:51;;;;;;;6.60;2.55;;;;;;;3.26;100.00;97095.88;15270981;19;20031;-65
2022/11/23 05:07:27;;;;;;;7.97;2.63;;;;;;;3.24;100.00;97095.19;15262270;19;20010;-66
2022/11/23 05:12:55;;;;;;;8.30;3.10;;;;;;;3.26;100.00;97108.34;15271887;19;20118;-65
2022/11/23 05:18:20;;;;;;;8.10;2.45;;;;;;;3.24;100.00;97106.69;15267330;19;20011;-66
2022/11/23 05:23:45;;;;;;;7.35;2.60;;;;;;;3.29;100.00;97116.06;15267049;19;20054;-64
2022/11/23 05:29:14;;;;;;;7.10;2.90;;;;;;;3.30;100.00;97117.69;15281170;19;20039;-65
2022/11/23 05:34:41;;;;;;;9.57;2.90;;;;;;;3.32;100.00;97113.94;15270914;19;20018;-64
2022/11/23 05:40:09;;;;;;;6.25;2.65;;;;;;;3.29;100.00;97111.56;15278338;19;20042;-65
2022/11/23 05:45:40;;;;;;;8.10;3.00;;;;;;;3.24;100.00;97111.16;15276560;19;20014;-65
2022/11/23 05:51:06;;;;;;;8.80;3.00;;;;;;;3.18;100.00;97107.25;15286074;19;20021;-64
2022/11/23 05:56:32;;;;;;;7.82;3.08;;;;;;;3.17;100.00;97104.75;15282975;19;20471;-65
2022/11/23 06:02:10;;;;;;;8.18;2.95;;;;;;;3.16;100.00;97109.25;15284701;19;20022;-65
2022/11/23 06:07:42;;;;;;;6.63;3.00;;;;;;;3.12;100.00;97113.19;15275825;19;20010;-64
2022/11/23 06:13:10;;;;;;;8.98;3.00;;;;;;;3.10;100.00;97119.63;15274426;19;20433;-65
2022/11/23 06:18:37;;;;;;;7.18;2.72;;;;;;;3.05;100.00;97112.91;15280461;19;20018;-65
2022/11/23 06:24:02;;;;;;;6.85;2.65;;;;;;;3.02;100.00;97115.88;15272522;19;20026;-64
2022/11/23 06:29:28;;;;;;;6.38;2.83;;;;;;;3.03;100.00;97106.91;15285421;19;20070;-65
2022/11/23 06:34:57;;;;;;;6.28;2.90;;;;;;;3.04;100.00;97118.41;15270956;19;20010;-64
2022/11/23 06:40:24;;;;;;;5.88;2.90;;;;;;;3.05;100.00;97128.06;15279301;19;20037;-64
2022/11/23 06:45:49;;;;;;;7.75;3.03;;;;;;;3.07;100.00;97121.59;15278314;19;20026;-64
2022/11/23 06:51:17;;;;;;;6.30;2.70;;;;;;;3.12;100.00;97144.28;15280199;19;20086;-63
2022/11/23 06:56:42;;;;;;;9.48;3.00;;;;;;;3.15;100.00;97133.31;15276399;19;20082;-65
2022/11/23 07:02:06;;;;;;;8.00;2.83;;;;;;;3.18;100.00;97155.16;15281230;19;20018;-65
2022/11/23 07:07:34;;;;;;;7.82;2.50;;;;;;;3.23;100.00;97155.56;15269971;19;20039;-64
2022/11/23 07:13:11;;;;;;;6.57;2.47;;;;;;;3.27;100.00;97148.13;15279289;19;20035;-66
2022/11/23 07:18:37;;;;;;;;;;;;;;;3.27;100.00;97157.94;15276014;19;20025;-63
2022/11/23 07:24:04;;;;;;;8.25;2.78;;;;;;;3.29;100.00;97159.47;15270078;19;19919;-64
2022/11/23 07:29:29;;;;;;;10.23;2.70;;;;;;;3.33;100.00;97163.53;15279197;19;20026;-63
2022/11/23 07:34:54;;;;;;;8.50;2.70;;;;;;;3.38;100.00;97166.56;15266528;19;20479;-65
2022/11/23 07:40:25;;;;;;;8.60;2.72;;;;;;;3.43;100.00;97174.09;15274046;19;20010;-65
2022/11/23 07:45:58;;;;;;;5.45;2.42;;;;;;;3.47;100.00;97182.66;15273959;19;20372;-64
2022/11/23 07:51:23;;;;;;;7.93;2.63;;;;;;;3.54;100.00;97203.22;15276324;19;21083;-64
2022/11/23 07:56:50;;;;;;;8.43;2.83;;;;;;;3.63;100.00;97190.00;15275227;19;20025;-65
2022/11/23 08:02:17;;;;;;;5.60;2.40;;;;;;;3.72;100.00;97196.25;15277353;19;20019;-65
2022/11/23 08:07:41;;;;;;;4.57;1.98;;;;;;;3.83;100.00;97198.72;15270399;19;20078;-64
2022/11/23 08:13:09;;;;;;;7.32;1.80;;;;;;;3.97;100.00;97194.72;15280568;19;20022;-65
2022/11/23 08:18:34;;;;;;;4.35;1.95;;;;;;;4.09;100.00;97195.34;15276126;19;20318;-64
2022/11/23 08:23:59;;;;;;;4.82;1.80;;;;;;;4.20;100.00;97181.78;15276771;19;20035;-64
2022/11/23 08:29:26;;;;;;;5.72;1.70;;;;;;;4.31;100.00;97186.06;15278949;19;20049;-64
2022/11/23 08:34:51;;;;;;;5.20;1.92;;;;;;;4.38;100.00;97180.97;15266134;19;20495;-64
2022/11/23 08:40:17;;;;;;;6.30;1.95;;;;;;;4.48;100.00;97171.06;15276347;19;20078;-64
2022/11/23 08:45:46;;;;;;;4.65;1.90;;;;;;;4.61;100.00;97171.50;15279068;19;20411;-65
2022/11/23 08:51:21;;;;;;;5.07;1.90;;;;;;;4.73;100.00;97164.06;15277760;19;20014;-65
2022/11/23 08:56:46;;;;;;;3.53;1.70;;;;;;;4.85;100.00;97167.34;15281727;19;20070;-65
2022/11/23 09:02:13;;;;;;;5.05;1.80;;;;;;;4.98;100.00;97169.59;15308972;19;20026;-64
2022/11/23 09:07:38;;;;;;;5.82;1.70;;;;;;;5.08;100.00;97172.97;15262454;19;20063;-65
2022/11/23 09:13:02;;;;;;;6.22;1.90;;;;;;;5.15;100.00;97169.69;15272476;19;20018;-64
2022/11/23 09:18:32;;;;;;;5.72;1.80;;;;;;;5.28;100.00;97162.09;15267813;19;20011;-65
2022/11/23 09:23:56;;;;;;;4.90;1.90;;;;;;;5.34;100.00;97158.78;15270441;19;20098;-66
2022/11/23 09:29:24;;;;;;;4.53;1.92;;;;;;;5.40;100.00;97142.13;15267939;19;20026;-64
2022/11/23 09:34:51;;;;;;;4.60;1.70;;;;;;;5.52;100.00;97145.34;15260024;19;20027;-64
2022/11/23 09:40:18;;;;;;;3.95;1.75;;;;;;;5.60;100.00;97138.34;15267953;19;20018;-65
2022/11/23 09:45:53;;;;;;;4.20;1.70;;;;;;;5.68;100.00;97144.56;15261168;19;20025;-64
2022/11/23 09:51:23;;;;;;;4.30;1.60;;;;;;;5.80;100.00;97144.25;15270026;19;20704;-65
2022/11/23 09:56:51;;;;;;;5.72;1.88;;;;;;;5.93;100.00;97146.47;15267828;19;20644;-64
2022/11/23 10:02:23;;;;;;;4.90;1.73;;;;;;;6.05;100.00;97145.22;15267857;19;20017;-63
2022/11/23 10:08:03;;;;;;;4.13;1.67;;;;;;;6.17;100.00;97143.03;15261491;19;20342;-64
2022/11/23 10:13:37;;;;;;;4.65;1.70;;;;;;;6.29;100.00;97135.56;15272432;19;20006;-64
2022/11/23 10:19:06;;;;;;;4.75;1.70;;;;;;;6.41;100.00;97142.22;15280023;19;20882;-64
2022/11/23 10:24:39;;;;;;;4.93;1.60;;;;;;;6.53;100.00;97132.03;15275237;19;20491;-64
2022/11/23 10:30:06;;;;;;;4.47;1.67;;;;;;;6.68;100.00;97123.34;15286588;19;20475;-64
2022/11/23 10:35:34;;;;;;;4.32;1.33;;;;;;;6.77;100.00;97123.13;15279030;19;20006;-65
2022/11/23 10:41:10;;;;;;;5.80;1.90;;;;;;;6.89;100.00;97118.28;15283262;19;20024;-65
2022/11/23 10:46:41;;;;;;;5.93;1.80;;;;;;;7.01;100.00;97113.38;15273107;19;20018;-64
2022/11/23 10:52:07;;;;;;;4.03;1.50;;;;;;;7.14;100.00;97106.66;15279825;19;20029;-65
2022/11/23 10:57:36;;;;;;;4.75;1.60;;;;;;;7.28;100.00;97097.09;15277654;19;20022;-65
2022/11/23 11:03:02;;;;;;;3.15;1.27;;;;;;;7.35;100.00;97101.56;15279367;19;20023;-64
2022/11/23 11:08:31;;;;;;;4.03;1.40;;;;;;;7.36;100.00;97086.34;15272841;19;20033;-66
2022/11/23 11:13:58;;;;;;;3.28;1.30;;;;;;;7.46;100.00;97083.47;15276144;19;20345;-64
2022/11/23 11:19:28;;;;;;;4.72;1.40;;;;;;;7.48;100.00;97081.41;15274643;19;20016;-62
2022/11/23 11:24:55;;;;;;;4.82;1.45;;;;;;;7.56;100.00;97084.91;15265057;19;20472;-64
2022/11/23 11:30:26;;;;;;;3.33;1.48;;;;;;;7.55;100.00;97085.91;15278621;19;20019;-65
2022/11/23 11:35:56;;;;;;;4.30;1.50;;;;;;;7.64;100.00;97084.03;15269553;19;20016;-65
2022/11/23 11:41:24;;;;;;;4.68;1.90;;;;;;;7.77;100.00;97074.56;15275682;19;20298;-65
2022/11/23 11:46:57;;;;;;;4.93;2.03;;;;;;;7.88;100.00;97087.59;15278129;19;20476;-66
2022/11/23 11:52:27;;;;;;;5.57;1.90;;;;;;;7.97;100.00;97080.31;15277126;19;20637;-66
2022/11/23 11:57:55;;;;;;;3.72;1.50;;;;;;;8.11;100.00;97082.25;15278852;19;20023;-66
2022/11/23 12:03:36;;;;;;;6.60;1.33;;;;;;;8.09;100.00;97076.22;15273902;19;20018;-65
2022/11/23 12:09:09;;;;;;;3.50;1.27;;;;;;;8.20;100.00;97076.81;15272076;19;20491;-61
2022/11/23 12:14:35;;;;;;;3.45;1.10;;;;;;;8.25;100.00;97071.72;15275774;19;20022;-65
2022/11/23 12:20:11;;;;;;;3.58;1.10;;;;;;;8.39;100.00;97062.88;15271836;19;20018;-64
2022/11/23 12:25:39;;;;;;;3.67;1.60;;;;;;;8.49;100.00;97051.94;15276695;19;20021;-65
2022/11/23 12:31:15;;;;;;;5.22;1.40;;;;;;;8.44;100.00;97052.47;15277918;19;20453;-65
2022/11/23 12:37:13;;;;;;;2.95;1.20;;;;;;;8.58;100.00;97061.59;15278591;19;20937;-63
2022/11/23 12:42:47;;;;;;;4.47;1.50;;;;;;;8.83;100.00;97060.50;15274199;19;20014;-64
2022/11/23 12:48:39;;;;;;;3.13;1.20;;;;;;;8.81;100.00;97060.69;15272821;19;20387;-63
2022/11/23 12:54:15;;;;;;;;;;;;;;;8.66;100.00;97052.63;15271925;19;20089;-61
2022/11/23 12:59:48;;;;;;;4.65;1.52;;;;;;;8.97;100.00;97069.59;15275198;19;19919;-64
2022/11/23 13:05:46;;;;;;;5.25;1.30;;;;;;;9.03;100.00;97052.72;15262698;19;20051;-61
2022/11/23 13:11:28;;;;;;;3.53;1.40;;;;;;;9.25;100.00;97062.53;15272408;19;20471;-63
2022/11/23 13:17:08;;;;;;;;;;;;;;;9.50;100.00;97059.53;15273334;19;20018;-62
2022/11/23 13:22:34;;;;;;;3.03;1.30;;;;;;;9.21;100.00;97065.78;15268492;19;19935;-64
2022/11/23 13:28:09;;;;;;;3.03;1.27;;;;;;;9.29;100.00;97063.00;15272840;19;20238;-65
2022/11/23 13:33:39;;;;;;;3.72;1.50;;;;;;;9.56;100.00;97061.50;15268126;19;20006;-63
2022/11/23 13:39:04;;;;;;;6.13;1.75;;;;;;;9.56;100.00;97058.81;15272528;19;20624;-64
2022/11/23 13:44:33;;;;;;;3.40;1.30;;;;;;;9.35;100.00;97062.25;15267665;19;20018;-65
2022/11/23 13:50:00;;;;;;;3.88;1.30;;;;;;;9.50;100.00;97054.16;15275659;19;20037;-64
2022/11/23 13:55:24;;;;;;;5.55;1.25;;;;;;;9.56;100.00;97058.81;15286448;19;20029;-64
2022/11/23 14:00:53;;;;;;;5.93;1.30;;;;;;;9.25;100.00;97043.72;15284875;19;20074;-64
2022/11/23 14:06:21;;;;;;;5.10;1.30;;;;;;;9.26;100.00;97058.00;15281040;19;20471;-65
2022/11/23 14:11:57;;;;;;;5.38;1.85;;;;;;;9.14;100.00;97057.63;15283746;19;20006;-65
2022/11/23 14:17:59;;;;;;;5.82;1.40;;;;;;;9.24;100.00;97055.50;15284404;19;20018;-64
2022/11/23 14:23:53;;;;;;;4.97;1.42;;;;;;;9.13;100.00;97047.91;15281685;19;20585;-65
2022/11/23 14:29:35;;;;;;;3.53;1.30;;;;;;;9.06;100.00;97049.69;15280372;19;20639;-64
2022/11/23 14:35:18;;;;;;;2.70;1.02;;;;;;;8.97;100.00;97048.94;15278186;19;20372;-64
2022/11/23 14:40:59;;;;;;;3.67;1.30;;;;;;;8.89;100.00;97057.09;15281495;19;20018;-65
2022/11/23 14:46:26;;;;;;;2.95;1.30;;;;;;;8.71;100.00;97049.38;15282281;19;20010;-64
2022/11/23 14:51:53;;;;;;;3.53;1.20;;;;;;;8.49;100.00;97065.38;15279955;19;20011;-64
2022/11/23 14:57:21;;;;;;;3.75;1.30;;;;;;;8.24;100.00;97054.81;15276132;19;20018;-63
2022/11/23 15:02:49;;;;;;;4.90;1.42;;;;;;;8.00;100.00;97053.97;15278358;19;20082;-64
2022/11/23 15:08:28;;;;;;;4.45;1.15;;;;;;;7.74;100.00;97054.34;15281178;19;20020;-64
2022/11/23 15:13:57;;;;;;;5.00;1.35;;;;;;;7.55;100.00;97060.97;15276963;19;20094;-64
2022/11/23 15:19:35;;;;;;;5.50;1.33;;;;;;;7.30;100.00;97062.91;15274073;19;20022;-65
2022/11/23 15:25:15;;;;;;;4.93;1.30;;;;;;;7.03;100.00;97055.16;15273434;19;20030;-65
2022/11/23 15:30:41;;;;;;;3.10;1.20;;;;;;;6.83;100.00;97059.22;15272847;19;20544;-65
2022/11/23 15:36:11;;;;;;;5.72;1.63;;;;;;;6.52;100.00;97043.91;15276184;19;20026;-65
2022/11/23 15:41:39;;;;;;;4.10;1.88;;;;;;;6.29;100.00;97058.81;15276275;19;20033;-64
2022/11/23 15:47:06;;;;;;;4.03;1.50;;;;;;;6.03;100.00;97071.50;15276397;19;20078;-64
2022/11/23 15:52:31;;;;;;;4.70;1.40;;;;;;;5.78;100.00;97074.94;15275320;19;20019;-65
2022/11/23 15:57:59;;;;;;;3.47;1.20;;;;;;;5.52;100.00;97080.41;15277101;19;20011;-64
2022/11/23 16:03:43;;;;;;;4.78;1.40;;;;;;;5.30;100.00;97089.84;15251724;19;20098;-65
2022/11/23 16:09:35;;;;;;;5.15;1.80;;;;;;;5.10;100.00;97090.09;15274421;19;20019;-65
2022/11/23 16:15:47;;;;;;;4.28;2.13;;;;;;;4.97;100.00;97097.69;15274236;19;20018;-65
2022/11/23 16:21:17;;;;;;;5.43;2.17;;;;;;;4.80;100.00;97092.25;15274483;19;20026;-65
2022/11/23 16:26:43;;;;;;;4.85;2.38;;;;;;;4.69;100.00;97088.03;15273957;19;20418;-65
2022/11/23 16:32:25;;;;;;;4.03;2.63;;;;;;;4.56;100.00;97095.63;15272569;19;20026;-64
2022/11/23 16:37:51;;;;;;;5.88;3.00;;;;;;;4.44;100.00;97101.19;15271294;19;20014;-64
2022/11/23 16:43:16;;;;;;;4.55;2.60;;;;;;;4.28;100.00;97093.06;15270805;19;20018;-65
2022/11/23 16:48:51;;;;;;;4.63;2.92;;;;;;;4.17;100.00;97110.16;15269778;19;20122;-65
2022/11/23 16:54:15;;;;;;;3.75;2.90;;;;;;;4.04;100.00;97109.69;15165145;19;2004285;-65
2022/11/23 16:59:48;;;;;;;5.25;3.00;;;;;;;3.94;100.00;97107.91;15273815;19;20422;-65
2022/11/23 17:05:19;;;;;;;5.45;3.00;;;;;;;3.85;100.00;97108.84;15270695;19;20372;-65
2022/11/23 17:10:46;;;;;;;4.70;3.00;;;;;;;3.74;100.00;97107.25;15267726;19;20029;-64
2022/11/23 17:16:15;;;;;;;6.38;3.20;;;;;;;3.64;100.00;97115.28;15272326;19;20018;-66
2022/11/23 17:21:43;;;;;;;5.95;3.30;;;;;;;3.51;100.00;97120.97;15268057;19;20022;-64
2022/11/23 17:27:08;;;;;;;7.55;3.40;;;;;;;3.42;100.00;97121.03;15267279;19;20046;-65
2022/11/23 17:32:33;;;;;;;10.38;6.65;;;;;;;3.35;100.00;97126.91;15272286;19;20082;-65
2022/11/23 17:38:00;;;;;;;9.32;6.40;;;;;;;3.30;100.00;97142.50;15270463;19;20025;-64
2022/11/23 17:43:25;;;;;;;6.10;3.20;;;;;;;3.26;100.00;97161.59;15268505;19;20085;-64
2022/11/23 17:48:55;;;;;;;5.82;2.75;;;;;;;3.22;100.00;97169.03;15268564;19;20017;-64
2022/11/23 17:54:23;;;;;;;6.43;3.00;;;;;;;3.27;100.00;97165.94;15267306;19;20032;-63
2022/11/23 17:59:47;;;;;;;4.75;2.70;;;;;;;3.25;100.00;97171.38;15269593;19;20015;-64
2022/11/23 18:05:28;;;;;;;5.75;2.80;;;;;;;3.24;100.00;97169.69;15270288;19;20019;-63
2022/11/23 18:10:57;;;;;;;4.25;2.90;;;;;;;3.13;100.00;97168.06;15262420;19;20018;-63
2022/11/23 18:16:22;;;;;;;6.93;3.00;;;;;;;3.17;100.00;97181.91;15267905;19;20409;-63
2022/11/23 18:21:47;;;;;;;6.18;3.00;;;;;;;3.18;100.00;97175.63;15265430;19;20629;-64
2022/11/23 18:27:15;;;;;;;7.43;3.50;;;;;;;3.15;100.00;97183.88;15265676;19;20459;-64
2022/11/23 18:32:40;;;;;;;6.57;3.30;;;;;;;3.13;100.00;97191.16;15267492;19;20033;-64
2022/11/23 18:38:04;;;;;;;7.20;3.35;;;;;;;3.12;100.00;97194.84;15279410;19;20038;-63
2022/11/23 18:43:33;;;;;;;5.90;3.33;;;;;;;3.09;100.00;97193.28;15278651;19;20094;-65
2022/11/23 18:48:58;;;;;;;6.30;3.45;;;;;;;3.07;100.00;97205.88;15278655;19;20049;-63
2022/11/23 18:54:23;;;;;;;6.65;3.50;;;;;;;3.02;100.00;97222.28;15277964;19;20037;-63
2022/11/23 18:59:51;;;;;;;5.60;3.65;;;;;;;2.98;100.00;97226.25;15282167;19;20018;-63
2022/11/23 19:05:16;;;;;;;5.90;3.90;;;;;;;2.95;100.00;97233.63;15279495;19;20033;-59
2022/11/23 19:10:43;;;;;;;7.50;4.00;;;;;;;2.91;100.00;97243.72;15278747;19;20406;-60
2022/11/23 19:16:15;;;;;;;11.60;7.65;;;;;;;2.85;100.00;97258.44;15279799;19;20025;-59
2022/11/23 19:21:43;;;;;;;6.97;3.60;;;;;;;2.85;100.00;97277.06;15280060;19;20081;-61
2022/11/23 19:27:07;;;;;;;5.60;3.22;;;;;;;2.81;100.00;97274.81;15282186;19;20039;-59
2022/11/23 19:32:38;;;;;;;8.77;4.60;;;;;;;2.78;100.00;97270.63;15278814;19;20395;-63
2022/11/23 19:38:02;;;;;;;7.75;4.97;;;;;;;2.75;100.00;97278.88;15274088;19;20469;-64
2022/11/23 19:43:27;;;;;;;6.30;4.32;;;;;;;2.71;100.00;97270.34;15278264;19;20022;-63
2022/11/23 19:48:56;;;;;;;6.50;4.03;;;;;;;2.66;100.00;97267.25;15269499;19;20018;-63
2022/11/23 19:54:20;;;;;;;7.00;3.70;;;;;;;2.65;100.00;97264.75;15276869;19;20399;-63
2022/11/23 19:59:46;;;;;;;7.60;3.35;;;;;;;2.58;100.00;97260.00;15279249;19;20429;-60
2022/11/23 20:05:21;;;;;;;5.00;3.50;;;;;;;2.52;100.00;97254.41;15276012;19;20028;-64
2022/11/23 20:10:45;;;;;;;5.20;3.67;;;;;;;2.53;100.00;97266.72;15273620;19;20021;-63
2022/11/23 20:16:11;;;;;;;6.97;3.80;;;;;;;2.50;100.00;97262.50;15272339;19;20678;-63
2022/11/23 20:21:39;;;;;;;6.10;3.90;;;;;;;2.50;100.00;97280.28;15274873;19;20466;-65
2022/11/23 20:27:03;;;;;;;6.32;3.90;;;;;;;2.47;100.00;97298.19;15276871;19;20353;-64
2022/11/23 20:32:27;;;;;;;6.45;3.95;;;;;;;2.49;100.00;97292.72;15274464;19;20022;-63
2022/11/23 20:37:55;;;;;;;6.00;3.80;;;;;;;2.45;100.00;97313.44;15270254;19;20015;-66
2022/11/23 20:43:19;;;;;;;7.80;3.83;;;;;;;2.45;100.00;97312.59;15276009;19;20011;-62
2022/11/23 20:48:39;;;;;;;4.40;3.60;;;;;;;2.44;100.00;97311.75;15273419;19;20030;-64
2022/11/23 20:54:07;;;;;;;6.72;3.95;;;;;;;2.39;100.00;97319.31;15275396;19;20018;-64
2022/11/23 20:59:33;;;;;;;6.28;3.53;;;;;;;2.35;100.00;97322.38;15275462;19;20252;-64
2022/11/23 21:04:58;;;;;;;7.25;3.75;;;;;;;2.32;100.00;97323.47;15275597;19;20648;-62
2022/11/23 21:16:02;;;;;;;8.77;4.03;;;;;;;2.23;100.00;97321.63;15269262;19;20134;-62
2022/11/23 21:21:28;;;;;;;5.35;3.80;;;;;;;2.20;100.00;97321.91;15275491;19;20031;-65
2022/11/23 21:26:55;;;;;;;6.88;4.13;;;;;;;2.18;100.00;97334.47;15277826;19;20459;-65
2022/11/23 21:32:13;;;;;;;8.27;4.30;;;;;;;2.15;100.00;97328.47;15273948;19;20094;-62
2022/11/23 21:37:38;;;;;;;7.05;4.22;;;;;;;2.14;100.00;97323.28;15268671;19;20066;-63
2022/11/23 21:43:06;;;;;;;7.63;4.00;;;;;;;2.11;100.00;97324.41;15277192;19;20086;-64
2022/11/23 21:48:31;;;;;;;6.13;4.00;;;;;;;2.07;100.00;97328.28;15271465;19;20010;-60
2022/11/23 21:53:56;;;;;;;7.03;4.25;;;;;;;2.05;100.00;97332.06;15276123;19;20022;-63
2022/11/23 21:59:23;;;;;;;9.68;4.38;;;;;;;2.03;100.00;97334.88;15282395;19;20014;-66
2022/11/23 22:04:48;;;;;;;6.32;4.20;;;;;;;2.00;100.00;97348.41;15293513;19;20494;-64
2022/11/23 22:10:14;;;;;;;7.55;4.18;;;;;;;1.96;100.00;97347.84;15269494;19;20011;-64
2022/11/23 22:15:34;;;;;;;6.78;4.28;;;;;;;1.92;100.00;97361.53;15287052;19;20018;-64
2022/11/23 22:21:00;;;;;;;5.53;4.13;;;;;;;1.84;100.00;97356.88;15278960;19;20031;-67
2022/11/23 22:26:26;;;;;;;6.15;4.22;;;;;;;1.81;100.00;97379.22;15282680;19;20018;-64
2022/11/23 22:31:54;;;;;;;8.05;4.20;;;;;;;1.80;100.00;97382.88;15277281;19;20014;-61
2022/11/23 22:37:18;;;;;;;8.55;4.28;;;;;;;1.81;100.00;97395.16;15275812;19;20078;-66
2022/11/23 22:42:44;;;;;;;6.18;4.25;;;;;;;1.78;100.00;97405.19;15281775;19;20372;-63
2022/11/23 22:48:11;;;;;;;9.35;4.65;;;;;;;1.76;100.00;97396.53;15276128;19;20015;-60
2022/11/23 22:53:40;;;;;;;7.53;5.00;;;;;;;1.75;100.00;97401.00;15279186;19;20011;-63
2022/11/23 22:59:06;;;;;;;6.63;4.50;;;;;;;1.80;100.00;97393.47;15281065;19;20021;-62
2022/11/23 23:04:34;;;;;;;8.07;5.18;;;;;;;1.95;100.00;97390.47;15279872;19;20090;-65
2022/11/23 23:09:59;;;;;;;6.53;4.32;;;;;;;1.96;100.00;97402.78;15271765;19;20499;-62
2022/11/23 23:15:26;;;;;;;6.63;4.70;;;;;;;1.99;100.00;97411.34;15277252;19;20022;-60
2022/11/23 23:21:02;;;;;;;5.65;4.00;;;;;;;2.06;100.00;97414.28;15274282;19;20810;-63
2022/11/23 23:26:28;;;;;;;7.18;4.40;;;;;;;2.08;100.00;97414.16;15274182;19;20031;-64
2022/11/23 23:31:53;;;;;;;6.60;4.57;;;;;;;2.12;100.00;97419.06;15270715;19;20104;-64
2022/11/23 23:37:22;;;;;;;6.43;4.53;;;;;;;2.12;100.00;97415.56;15268018;19;20496;-64
2022/11/23 23:42:47;;;;;;;7.93;4.80;;;;;;;2.14;100.00;97410.97;15273031;19;20074;-61
2022/11/23 23:48:13;;;;;;;6.43;4.70;;;;;;;2.18;100.00;97407.06;15269627;19;20578;-62
2022/11/23 23:53:42;;;;;;;6.50;4.78;;;;;;;2.23;100.00;97414.66;15270968;19;20471;-63
2022/11/23 23:59:07;;;;;;;6.30;4.53;;;;;;;2.27;100.00;97416.06;15273969;19;20467;-62
